Aérodrome :
LOGIN :

S'inscrire | Disclaimer

   EN    FR    IT 

 










Légende :    VFR   VFR Marginal   IFR   IFR Intensif   IFR Très Intensif
Visi : 
Plafond : 
>= 8 km
>= 3000ft
5 à 8 km
1000 à 3000 ft
1500m à 5 km
500 à 1000 ft
800 à 1500m
200 à 500 ft
< 800m
< 200 ft
Symboles :   Orages  Brouillard  Fortes neiges  Fortes précipitations  Vent > 20 kt
SIGMETs :   Divers  Orages  Givrage  Turbulence  Onde Orograph.  Cendres Volcan.






- Altitude de l'aérodrome : 33 ft
- Code IATA : MHZ


EGUN - RAF Mildenhall

DERNIER METAR :
  • 011755Z 28003KT 9999 OVC050 07/01 A3011 RMK AO2A SLP195 WND DATA ESTMD ALSTG/SLP ESTMD RVRNO

METARs EXPIRÉS :
  • 011655Z 29007KT 9999 OVC050 08/01 A3012 RMK AO2A SLP199 WND DATA ESTMD ALSTG/SLP ESTMD RVRNO
  • 011558Z 31006KT 9999 OVC050 08/00 A3012 RMK AO2A SLP199 WND DATA ESTMD ALSTG/SLP ESTMD RVRNO

TAF TAF EGUN
Valide du 01 à 12h jusqu'au 02 à 18h UTC


011200Z 0112/0218 27012KT 9999 BKN030 QNH3012INS
BECMG 0117/0118 27009KT 9999 BKN025 QNH3003INS
BECMG 0206/0207 27012G20KT 9999 BKN020 QNH2989INS TX12/0212Z TN01/0205Z



MET'MAP, la Météo Aéronautique d'un coup d'oeil ! - Copyright ORBIFLY Décembre 2007 - Disclaimer

ORBIFLY MET'MAP TEAM :

Programmation & Développement : Alexandra Zaïnal
Sur une idée originale de : Baudouin d'Aumeries
Assistance à la programmation : Marc-Olivier Méhu
Soutien technique & logistique : Manuel Goepfert

Contact : metmap@orbifly.com




SOURCES & CREDITS :

   NOAA